Time;durP1;ratioP1;P1;durP2;ratioP2;P2;SDS_P1;SDS_P2;PMS_P1;PMS_P2;Temp;Humidity;BMP_temperature;BMP_pressure;BME280_temperature;BME280_humidity;BME280_pressure;Samples;Min_cycle;Max_cycle;Signal;HPM_P1;HPM_P2
2023/07/02 00:00:08;;;;;;;18.20;6.93;;;23.90;93.20;;;;;;5050644;28;20048;-77
2023/07/02 00:03:15;;;;;;;26.42;7.90;;;24.00;93.10;;;;;;5050862;28;20040;-77
2023/07/02 00:06:19;;;;;;;28.25;7.80;;;24.00;92.90;;;;;;5050744;28;20040;-77
2023/07/02 00:09:23;;;;;;;22.08;7.00;;;23.90;92.80;;;;;;5050497;28;20063;-77
2023/07/02 00:12:27;;;;;;;22.70;6.63;;;23.90;92.70;;;;;;5050503;28;20044;-77
2023/07/02 00:15:31;;;;;;;21.15;6.65;;;23.90;92.90;;;;;;5050413;28;20052;-77
2023/07/02 00:18:35;;;;;;;27.45;7.78;;;23.90;92.60;;;;;;5050533;28;20040;-78
2023/07/02 00:21:40;;;;;;;23.65;6.35;;;23.90;92.60;;;;;;5050694;28;20060;-78
2023/07/02 00:24:44;;;;;;;18.52;7.03;;;23.90;92.70;;;;;;5050324;28;20047;-77
2023/07/02 00:27:48;;;;;;;25.23;7.07;;;23.80;92.70;;;;;;5050530;28;20040;-77
2023/07/02 00:30:51;;;;;;;34.75;7.38;;;23.80;92.70;;;;;;5050224;28;20044;-77
2023/07/02 00:33:55;;;;;;;23.13;7.18;;;23.80;93.00;;;;;;5052453;28;20052;-77
2023/07/02 00:36:59;;;;;;;16.58;6.80;;;23.80;92.80;;;;;;5053117;28;20044;-77
2023/07/02 00:40:04;;;;;;;22.95;7.07;;;23.80;92.80;;;;;;5053942;28;20052;-76
2023/07/02 00:43:12;;;;;;;20.42;6.72;;;23.70;92.80;;;;;;5053646;28;20040;-76
2023/07/02 00:46:19;;;;;;;20.75;6.93;;;23.70;93.20;;;;;;5052800;28;20051;-76
2023/07/02 00:49:24;;;;;;;29.83;6.65;;;23.70;92.70;;;;;;5053081;28;20048;-76
2023/07/02 00:52:28;;;;;;;22.25;7.03;;;23.60;92.80;;;;;;5053863;28;20052;-78
2023/07/02 00:55:32;;;;;;;23.85;7.32;;;23.60;92.80;;;;;;5053398;28;20052;-77
2023/07/02 00:58:48;;;;;;;28.52;7.25;;;23.60;92.90;;;;;;5052631;28;20045;-78
2023/07/02 01:01:52;;;;;;;23.10;6.43;;;23.60;92.80;;;;;;5052637;28;20040;-77
2023/07/02 01:04:59;;;;;;;24.40;6.63;;;23.70;92.80;;;;;;5053700;28;20048;-77
2023/07/02 01:08:06;;;;;;;23.77;7.68;;;23.70;92.80;;;;;;5052569;28;20044;-77
2023/07/02 01:11:10;;;;;;;25.02;6.65;;;23.70;92.80;;;;;;5053099;28;20495;-77
2023/07/02 01:14:20;;;;;;;24.08;6.63;;;23.70;92.70;;;;;;5052343;28;20496;-77
2023/07/02 01:17:26;;;;;;;21.65;7.18;;;23.70;92.80;;;;;;5052898;28;20056;-77
2023/07/02 01:20:31;;;;;;;22.75;6.82;;;23.70;92.80;;;;;;5052843;28;20060;-77
2023/07/02 01:23:35;;;;;;;20.65;6.68;;;23.70;93.00;;;;;;5053026;28;20044;-77
2023/07/02 01:26:40;;;;;;;19.05;6.32;;;23.50;93.20;;;;;;5051937;28;20040;-77
2023/07/02 01:29:47;;;;;;;25.17;6.70;;;23.30;93.60;;;;;;5053070;28;20047;-77
2023/07/02 01:32:51;;;;;;;22.13;6.40;;;23.20;94.00;;;;;;5052598;28;20048;-77
2023/07/02 01:35:55;;;;;;;27.25;7.57;;;23.30;93.90;;;;;;5052824;28;20056;-77
2023/07/02 01:38:59;;;;;;;19.58;6.13;;;23.40;93.60;;;;;;5052740;28;20376;-77
2023/07/02 01:42:11;;;;;;;21.25;6.50;;;23.50;93.40;;;;;;5051650;28;20048;-77
2023/07/02 01:45:15;;;;;;;19.45;6.70;;;23.50;93.40;;;;;;5052649;28;20044;-77
2023/07/02 01:48:19;;;;;;;25.17;5.88;;;23.40;93.50;;;;;;5052381;28;20048;-77
2023/07/02 01:51:25;;;;;;;29.90;7.10;;;23.50;93.70;;;;;;5051620;28;20040;-77
2023/07/02 01:54:31;;;;;;;24.75;6.95;;;23.50;93.40;;;;;;5051503;28;20052;-77
2023/07/02 01:57:35;;;;;;;24.50;6.53;;;23.60;93.50;;;;;;5052397;28;20040;-77
2023/07/02 02:00:39;;;;;;;28.13;8.35;;;23.60;93.70;;;;;;5052311;28;20043;-77
2023/07/02 02:03:42;;;;;;;22.90;7.43;;;23.40;93.90;;;;;;5051198;28;20044;-77
2023/07/02 02:06:47;;;;;;;23.13;7.70;;;23.40;94.60;;;;;;5051755;28;20064;-78
2023/07/02 02:09:50;;;;;;;22.75;6.93;;;23.40;94.30;;;;;;5050990;28;20060;-77
2023/07/02 02:12:54;;;;;;;24.95;6.93;;;23.40;94.60;;;;;;5051819;28;20503;-77
2023/07/02 02:15:58;;;;;;;30.42;7.50;;;23.50;95.20;;;;;;5051535;28;20056;-76
2023/07/02 02:19:02;;;;;;;27.00;7.35;;;23.50;95.30;;;;;;5051490;28;20048;-76
2023/07/02 02:22:06;;;;;;;26.52;7.68;;;23.20;95.60;;;;;;5051003;28;20258;-76
2023/07/02 02:25:11;;;;;;;26.48;7.80;;;23.10;96.10;;;;;;5050839;28;20048;-76
2023/07/02 02:28:15;;;;;;;27.25;7.90;;;22.90;96.30;;;;;;5052080;28;20420;-76
2023/07/02 02:31:19;;;;;;;24.00;7.97;;;22.90;97.00;;;;;;5051875;28;20048;-76
2023/07/02 02:34:23;;;;;;;26.25;8.38;;;22.90;97.50;;;;;;5050892;28;20048;-76
2023/07/02 02:37:27;;;;;;;24.45;8.15;;;22.90;97.00;;;;;;5050661;28;20052;-76
2023/07/02 02:40:32;;;;;;;21.85;7.82;;;22.90;97.30;;;;;;5050960;28;20106;-77
2023/07/02 02:43:36;;;;;;;25.02;7.80;;;22.70;97.60;;;;;;5051160;28;20048;-77
2023/07/02 02:46:40;;;;;;;22.85;8.05;;;22.50;98.40;;;;;;5050545;28;20044;-78
2023/07/02 02:49:45;;;;;;;28.92;8.05;;;22.50;98.90;;;;;;5050973;28;20048;-76
2023/07/02 02:52:50;;;;;;;24.45;8.48;;;22.60;99.20;;;;;;5051675;28;20512;-76
2023/07/02 02:55:54;;;;;;;25.20;8.27;;;22.70;98.80;;;;;;5049989;28;20047;-76
2023/07/02 02:58:57;;;;;;;25.65;8.18;;;22.70;98.60;;;;;;5051277;28;20044;-76
2023/07/02 03:02:02;;;;;;;23.45;7.90;;;22.80;98.50;;;;;;5050734;28;20048;-76
2023/07/02 03:05:07;;;;;;;22.73;8.65;;;22.90;98.30;;;;;;5050524;28;20044;-77
2023/07/02 03:08:10;;;;;;;28.73;7.85;;;23.00;98.20;;;;;;5051174;28;20040;-77
2023/07/02 03:11:14;;;;;;;30.95;8.35;;;23.00;98.10;;;;;;5051089;28;20044;-77
2023/07/02 03:14:18;;;;;;;23.95;7.45;;;23.00;98.00;;;;;;5050948;28;20064;-76
2023/07/02 03:17:22;;;;;;;26.10;8.57;;;23.00;97.90;;;;;;5038851;28;20040;-77
2023/07/02 03:20:26;;;;;;;26.65;7.47;;;23.00;98.00;;;;;;5050821;28;20056;-77
2023/07/02 03:23:30;;;;;;;30.30;8.90;;;23.00;97.80;;;;;;5050919;28;20056;-76
2023/07/02 03:26:34;;;;;;;28.45;8.57;;;22.80;98.10;;;;;;5050825;28;20036;-76
2023/07/02 03:29:38;;;;;;;32.35;9.07;;;22.60;98.80;;;;;;5051163;28;20056;-76
2023/07/02 03:32:42;;;;;;;25.55;9.43;;;22.60;98.60;;;;;;5050261;28;20393;-78
2023/07/02 03:35:46;;;;;;;24.38;8.15;;;22.50;98.50;;;;;;5049927;28;20508;-77
2023/07/02 03:38:49;;;;;;;21.42;7.82;;;22.60;98.30;;;;;;5051100;28;20048;-76
2023/07/02 03:41:53;;;;;;;25.08;8.52;;;22.50;98.10;;;;;;5050360;28;20044;-78
2023/07/02 03:44:57;;;;;;;28.20;8.52;;;22.50;98.70;;;;;;5050970;28;20044;-77
2023/07/02 03:48:01;;;;;;;23.65;8.82;;;22.50;98.70;;;;;;5050826;28;20449;-76
2023/07/02 03:51:06;;;;;;;21.70;8.25;;;22.50;98.40;;;;;;5038810;28;20048;-76
2023/07/02 03:54:10;;;;;;;21.60;7.97;;;22.30;98.90;;;;;;5050873;28;20040;-77
2023/07/02 03:57:14;;;;;;;27.10;8.43;;;22.20;99.40;;;;;;5050513;28;20044;-76
2023/07/02 04:00:18;;;;;;;22.27;7.93;;;22.10;99.40;;;;;;5050625;28;20504;-76
2023/07/02 04:03:21;;;;;;;27.73;9.02;;;22.20;99.60;;;;;;5050584;28;20044;-76
2023/07/02 04:06:26;;;;;;;23.20;9.02;;;22.20;99.40;;;;;;5050621;28;20040;-77
2023/07/02 04:09:32;;;;;;;24.10;8.32;;;22.20;99.20;;;;;;5053725;28;20040;-77
2023/07/02 04:12:36;;;;;;;29.85;9.40;;;22.30;99.50;;;;;;5053375;28;20112;-77
2023/07/02 04:15:40;;;;;;;23.48;8.70;;;22.30;99.30;;;;;;5053993;28;20443;-77
2023/07/02 04:18:44;;;;;;;20.77;8.25;;;22.30;99.10;;;;;;5053376;28;20052;-76
2023/07/02 04:21:48;;;;;;;27.65;7.80;;;22.30;99.30;;;;;;5054362;28;20507;-77
2023/07/02 04:24:51;;;;;;;30.65;8.75;;;22.20;99.10;;;;;;5054032;28;20048;-77
2023/07/02 04:27:56;;;;;;;24.73;7.43;;;22.20;99.30;;;;;;5054447;28;20036;-77
2023/07/02 04:31:01;;;;;;;22.08;7.40;;;22.30;99.50;;;;;;5054945;28;20051;-77
2023/07/02 04:34:05;;;;;;;25.05;7.53;;;22.50;99.30;;;;;;5054143;28;20044;-77
2023/07/02 04:37:09;;;;;;;20.80;7.82;;;22.50;98.60;;;;;;5054008;28;20048;-77
2023/07/02 04:40:14;;;;;;;22.73;7.60;;;22.40;99.10;;;;;;5053939;28;20052;-78
2023/07/02 04:43:18;;;;;;;19.95;7.38;;;22.70;99.00;;;;;;5054094;28;20055;-77
2023/07/02 04:46:21;;;;;;;24.13;7.30;;;23.10;98.40;;;;;;5053068;28;20044;-76
2023/07/02 04:49:25;;;;;;;26.35;8.60;;;23.30;97.90;;;;;;5053137;28;20036;-76
2023/07/02 04:52:29;;;;;;;22.13;8.40;;;23.20;97.60;;;;;;5053871;28;20040;-77
2023/07/02 04:55:33;;;;;;;22.88;8.10;;;23.00;98.30;;;;;;5053652;28;20051;-77
2023/07/02 04:58:37;;;;;;;19.60;8.00;;;23.00;98.40;;;;;;5053909;28;20044;-78
2023/07/02 05:01:41;;;;;;;23.98;8.18;;;23.10;98.10;;;;;;5052887;28;20052;-76
2023/07/02 05:04:45;;;;;;;22.77;9.20;;;23.00;98.30;;;;;;5053371;28;20059;-77
2023/07/02 05:07:49;;;;;;;25.17;8.43;;;23.00;98.40;;;;;;5053560;28;20388;-77
2023/07/02 05:10:53;;;;;;;26.77;7.95;;;23.10;98.30;;;;;;5053574;28;20044;-77
2023/07/02 05:13:57;;;;;;;29.67;7.60;;;23.40;98.00;;;;;;5053159;28;20043;-77
2023/07/02 05:17:01;;;;;;;22.20;7.68;;;23.60;96.80;;;;;;5053371;28;20064;-76
2023/07/02 05:20:06;;;;;;;26.95;7.43;;;23.60;96.90;;;;;;5052520;28;20132;-77
2023/07/02 05:23:10;;;;;;;21.98;7.50;;;23.60;96.30;;;;;;5052198;28;20048;-77
2023/07/02 05:26:14;;;;;;;33.08;11.10;;;23.70;96.50;;;;;;5053156;28;20100;-77
2023/07/02 05:29:19;;;;;;;20.45;7.88;;;24.00;95.90;;;;;;5053028;28;20052;-76
2023/07/02 05:32:22;;;;;;;22.23;7.63;;;24.30;95.30;;;;;;5053013;28;20043;-76
2023/07/02 05:35:26;;;;;;;20.98;6.70;;;24.70;95.20;;;;;;5052755;28;20052;-76
2023/07/02 05:38:30;;;;;;;24.85;6.95;;;24.90;94.60;;;;;;5052947;28;20487;-75
2023/07/02 05:41:34;;;;;;;22.63;7.28;;;25.00;94.20;;;;;;5053020;28;20052;-76
2023/07/02 05:44:38;;;;;;;20.50;6.68;;;25.00;93.90;;;;;;5052860;28;20055;-76
2023/07/02 05:47:42;;;;;;;21.80;6.72;;;25.10;93.80;;;;;;5052660;28;20044;-76
2023/07/02 05:50:46;;;;;;;19.05;7.05;;;25.20;94.10;;;;;;5052456;28;20067;-76
2023/07/02 05:53:50;;;;;;;23.25;6.80;;;25.20;94.00;;;;;;5052414;28;20044;-76
2023/07/02 05:56:55;;;;;;;21.85;7.43;;;25.30;93.90;;;;;;5052320;28;20075;-76
2023/07/02 05:59:58;;;;;;;26.98;7.88;;;25.60;93.90;;;;;;5052549;28;20040;-76
2023/07/02 06:03:03;;;;;;;20.63;7.53;;;25.80;92.90;;;;;;5052511;28;20052;-76
2023/07/02 06:06:07;;;;;;;17.92;7.13;;;25.80;92.70;;;;;;5052091;28;20055;-77
2023/07/02 06:09:11;;;;;;;20.67;7.22;;;25.90;92.70;;;;;;5052097;28;20488;-75
2023/07/02 06:12:14;;;;;;;21.20;8.25;;;26.00;92.30;;;;;;5052141;28;20048;-76
2023/07/02 06:15:18;;;;;;;18.60;6.95;;;26.10;92.50;;;;;;5051093;28;20059;-75
2023/07/02 06:18:22;;;;;;;20.45;6.15;;;26.40;91.50;;;;;;5052058;28;20043;-75
2023/07/02 06:21:29;;;;;;;18.98;7.38;;;26.50;91.40;;;;;;5052169;28;20055;-75
2023/07/02 06:24:33;;;;;;;19.23;6.63;;;26.40;91.00;;;;;;5051185;28;20051;-76
2023/07/02 06:27:37;;;;;;;16.80;5.55;;;26.70;91.20;;;;;;5052044;28;20051;-76
2023/07/02 06:30:41;;;;;;;18.63;6.20;;;27.00;90.90;;;;;;5050550;28;20044;-77
2023/07/02 06:33:45;;;;;;;25.08;6.00;;;27.30;90.30;;;;;;5051572;28;20052;-77
2023/07/02 06:36:49;;;;;;;17.77;5.47;;;27.30;89.80;;;;;;5050887;28;20056;-74
2023/07/02 06:39:53;;;;;;;15.95;5.15;;;27.30;90.40;;;;;;5051570;28;20044;-75
2023/07/02 06:42:57;;;;;;;18.25;4.82;;;27.60;89.60;;;;;;5051750;28;20104;-76
2023/07/02 06:46:01;;;;;;;13.95;4.95;;;27.90;89.80;;;;;;5051783;28;20036;-75
2023/07/02 06:49:05;;;;;;;17.83;5.88;;;28.30;89.00;;;;;;5051660;28;20044;-76
2023/07/02 06:52:09;;;;;;;14.27;4.72;;;28.50;87.60;;;;;;5051717;28;20591;-76
2023/07/02 06:55:13;;;;;;;18.63;5.40;;;28.60;88.10;;;;;;5051422;28;20401;-76
2023/07/02 06:58:17;;;;;;;12.82;5.30;;;28.90;88.50;;;;;;5051231;28;20056;-74
2023/07/02 07:01:21;;;;;;;15.15;4.95;;;29.20;86.90;;;;;;5051398;28;20044;-75
2023/07/02 07:04:26;;;;;;;17.42;5.65;;;29.40;85.90;;;;;;5051412;28;20400;-76
2023/07/02 07:07:30;;;;;;;17.85;5.65;;;29.70;86.60;;;;;;5051256;28;20108;-77
2023/07/02 07:10:34;;;;;;;14.75;5.22;;;29.80;85.10;;;;;;5050414;28;20060;-75
2023/07/02 07:13:38;;;;;;;14.07;6.07;;;29.90;84.70;;;;;;5051234;28;20056;-76
2023/07/02 07:16:42;;;;;;;17.02;4.47;;;30.00;85.30;;;;;;5050772;28;20064;-76
2023/07/02 07:19:46;;;;;;;13.95;5.10;;;30.40;84.80;;;;;;5050704;28;20052;-76
2023/07/02 07:22:49;;;;;;;11.80;4.53;;;30.60;83.10;;;;;;5050702;28;20052;-76
2023/07/02 07:25:53;;;;;;;12.45;4.60;;;30.60;80.80;;;;;;5050612;28;20036;-76
2023/07/02 07:28:57;;;;;;;16.20;5.80;;;30.60;81.10;;;;;;5051017;28;20428;-76
2023/07/02 07:32:01;;;;;;;20.45;5.80;;;30.70;81.20;;;;;;5051044;28;20044;-75
2023/07/02 07:35:05;;;;;;;12.52;5.10;;;30.90;82.00;;;;;;5050628;28;20052;-76
2023/07/02 07:38:09;;;;;;;13.48;5.18;;;31.10;80.60;;;;;;5050000;28;20052;-76
2023/07/02 07:41:13;;;;;;;13.38;5.10;;;31.50;80.20;;;;;;5050225;28;20048;-77
2023/07/02 07:44:17;;;;;;;9.90;4.55;;;31.70;79.40;;;;;;5054997;28;20056;-76
2023/07/02 07:47:21;;;;;;;12.95;5.72;;;31.90;77.70;;;;;;5054601;28;20044;-76
2023/07/02 07:50:25;;;;;;;21.05;6.13;;;31.80;78.10;;;;;;5054957;28;20044;-76
2023/07/02 07:53:29;;;;;;;13.57;5.20;;;31.80;77.90;;;;;;5054666;28;20040;-76
2023/07/02 07:56:34;;;;;;;12.23;5.13;;;31.90;76.50;;;;;;5054535;28;20128;-77
2023/07/02 07:59:38;;;;;;;10.95;4.78;;;31.90;77.40;;;;;;5054794;28;20044;-77
2023/07/02 08:02:43;;;;;;;14.73;4.88;;;32.40;77.50;;;;;;5054540;28;20043;-75
2023/07/02 08:05:47;;;;;;;10.45;5.55;;;32.40;75.90;;;;;;5054296;28;20036;-76
2023/07/02 08:08:51;;;;;;;14.38;4.95;;;31.60;77.40;;;;;;5054532;28;20056;-77
2023/07/02 08:11:55;;;;;;;17.02;5.85;;;31.10;77.60;;;;;;5054672;28;20044;-76
2023/07/02 08:14:59;;;;;;;12.05;5.07;;;30.30;78.50;;;;;;5054218;28;20044;-76
2023/07/02 08:18:03;;;;;;;11.07;5.03;;;29.60;79.90;;;;;;5054510;28;20060;-76
2023/07/02 08:21:07;;;;;;;11.00;5.00;;;29.70;81.20;;;;;;5054229;28;20055;-76
2023/07/02 08:24:12;;;;;;;13.60;5.32;;;30.40;79.10;;;;;;5054098;28;20052;-76
2023/07/02 08:27:19;;;;;;;14.20;5.50;;;30.80;77.50;;;;;;5054156;28;20040;-77
2023/07/02 08:30:23;;;;;;;11.68;5.00;;;31.30;77.90;;;;;;5054330;28;20044;-76
2023/07/02 08:33:26;;;;;;;13.98;5.30;;;31.50;76.70;;;;;;5054105;28;20032;-76
2023/07/02 08:36:30;;;;;;;12.18;5.57;;;31.50;75.90;;;;;;5053799;28;20523;-76
2023/07/02 08:39:35;;;;;;;13.38;5.28;;;31.60;76.10;;;;;;5053844;28;20052;-75
2023/07/02 08:42:39;;;;;;;13.18;5.20;;;31.60;75.90;;;;;;5053659;28;20044;-77
2023/07/02 08:45:47;;;;;;;11.43;5.07;;;31.70;76.70;;;;;;5053693;28;20397;-77
2023/07/02 08:48:51;;;;;;;11.00;4.90;;;31.90;76.90;;;;;;5053406;28;20048;-76
2023/07/02 08:51:55;;;;;;;8.45;4.60;;;32.30;75.60;;;;;;5053869;28;20044;-76
2023/07/02 08:54:59;;;;;;;9.38;4.55;;;32.30;73.10;;;;;;5052344;28;20412;-76
2023/07/02 08:58:02;;;;;;;8.80;4.82;;;32.40;73.90;;;;;;5053368;28;20397;-76
2023/07/02 09:01:09;;;;;;;12.55;5.28;;;32.60;72.10;;;;;;5053402;28;20044;-75
2023/07/02 09:04:24;;;;;;;11.15;4.78;;;32.70;71.90;;;;;;5053583;28;20044;-75
2023/07/02 09:07:27;;;;;;;11.82;5.03;;;32.70;73.10;;;;;;5052434;28;20044;-77
2023/07/02 09:10:31;;;;;;;11.05;5.35;;;32.70;73.80;;;;;;5053156;28;20043;-75
2023/07/02 09:13:49;;;;;;;14.82;4.90;;;32.40;73.10;;;;;;5053431;28;20055;-77
2023/07/02 09:17:09;;;;;;;9.60;4.60;;;32.10;73.70;;;;;;5052159;28;20167;-76
2023/07/02 09:20:12;;;;;;;12.25;5.35;;;31.90;74.30;;;;;;5052854;28;20056;-76
2023/07/02 09:23:16;;;;;;;10.25;4.95;;;32.00;74.80;;;;;;5053289;28;20496;-76
2023/07/02 09:26:22;;;;;;;11.93;5.00;;;32.20;74.20;;;;;;5052298;28;20056;-76
2023/07/02 09:29:30;;;;;;;9.80;4.70;;;32.40;71.90;;;;;;5053005;28;20527;-76
2023/07/02 09:32:35;;;;;;;12.65;4.70;;;32.50;71.70;;;;;;5052419;28;20052;-76
2023/07/02 09:35:38;;;;;;;9.70;5.05;;;32.20;72.30;;;;;;5052688;28;20515;-76
2023/07/02 09:38:43;;;;;;;12.63;5.35;;;31.90;74.00;;;;;;5052736;28;20048;-77
2023/07/02 09:41:49;;;;;;;14.35;6.03;;;31.60;75.30;;;;;;5052975;28;20040;-76
2023/07/02 09:44:56;;;;;;;13.18;5.28;;;31.40;76.90;;;;;;5052426;28;20043;-75
2023/07/02 09:48:01;;;;;;;12.05;5.22;;;31.30;77.10;;;;;;5052472;28;20040;-76
2023/07/02 09:51:05;;;;;;;13.95;5.63;;;31.10;78.40;;;;;;5052810;28;20048;-76
2023/07/02 09:54:10;;;;;;;11.80;5.40;;;30.90;77.90;;;;;;5051842;28;20048;-76
2023/07/02 09:57:14;;;;;;;13.02;5.20;;;30.60;77.80;;;;;;5052320;28;20052;-76
2023/07/02 10:00:18;;;;;;;15.85;6.40;;;30.40;79.00;;;;;;5052255;28;20397;-76
2023/07/02 10:03:29;;;;;;;11.25;5.75;;;30.30;80.40;;;;;;5052362;28;20048;-76
2023/07/02 10:06:51;;;;;;;11.82;5.43;;;30.20;80.40;;;;;;5052359;28;20047;-77
2023/07/02 10:09:55;;;;;;;13.93;5.75;;;30.20;80.20;;;;;;5052527;28;20538;-76
2023/07/02 10:12:58;;;;;;;17.58;6.40;;;30.30;80.70;;;;;;5052389;28;20044;-74
2023/07/02 10:16:06;;;;;;;16.05;5.70;;;30.30;80.80;;;;;;5052026;28;20048;-76
2023/07/02 10:19:11;;;;;;;15.73;6.28;;;30.20;80.80;;;;;;5051814;28;20056;-77
2023/07/02 10:22:15;;;;;;;14.68;5.45;;;30.20;80.80;;;;;;5052236;28;20044;-79
2023/07/02 10:25:27;;;;;;;18.58;6.40;;;30.10;80.70;;;;;;5051559;28;20044;-76
2023/07/02 10:28:31;;;;;;;18.95;7.00;;;30.00;80.80;;;;;;5051965;28;20044;-76
2023/07/02 10:31:35;;;;;;;10.93;5.60;;;29.90;80.70;;;;;;5051761;28;20056;-78
2023/07/02 10:34:38;;;;;;;12.95;6.18;;;29.80;80.70;;;;;;5051804;28;20040;-79
2023/07/02 10:37:43;;;;;;;12.02;5.78;;;29.70;80.80;;;;;;5051682;28;20400;-79
2023/07/02 10:40:54;;;;;;;18.10;6.15;;;29.60;81.20;;;;;;5051862;28;20389;-78
2023/07/02 10:44:09;;;;;;;14.15;6.07;;;29.60;81.40;;;;;;5052050;28;20568;-78
2023/07/02 10:47:13;;;;;;;16.65;6.38;;;29.80;80.80;;;;;;5051985;28;20389;-76
2023/07/02 10:50:18;;;;;;;14.23;5.68;;;30.10;80.00;;;;;;5051685;28;20040;-76
2023/07/02 10:53:22;;;;;;;16.02;6.28;;;30.30;79.70;;;;;;5051751;28;20044;-77
2023/07/02 10:56:27;;;;;;;12.35;6.43;;;30.60;79.70;;;;;;5051273;28;20052;-77
2023/07/02 10:59:31;;;;;;;16.75;5.88;;;30.80;78.90;;;;;;5050643;28;20044;-78
2023/07/02 11:02:39;;;;;;;12.98;5.97;;;30.90;77.90;;;;;;5051490;28;20052;-79
2023/07/02 11:05:44;;;;;;;12.23;5.78;;;30.90;78.60;;;;;;5050639;28;20056;-78
2023/07/02 11:08:48;;;;;;;11.57;5.60;;;30.90;78.40;;;;;;5051264;28;20503;-77
2023/07/02 11:11:57;;;;;;;13.85;5.75;;;31.00;78.20;;;;;;5051647;28;20056;-77
2023/07/02 11:15:12;;;;;;;12.75;6.07;;;31.00;78.30;;;;;;5051189;28;20393;-79
2023/07/02 11:18:17;;;;;;;12.32;5.45;;;31.00;78.10;;;;;;5050872;28;20060;-78
2023/07/02 11:21:21;;;;;;;11.48;5.43;;;31.00;77.60;;;;;;5051420;28;20052;-78
2023/07/02 11:24:36;;;;;;;11.55;5.55;;;30.90;78.20;;;;;;5050906;28;20500;-76
2023/07/02 11:27:41;;;;;;;10.48;5.00;;;30.90;77.80;;;;;;5050398;28;20067;-78
2023/07/02 11:30:45;;;;;;;12.77;5.20;;;30.90;78.30;;;;;;5051519;28;20040;-77
2023/07/02 11:33:49;;;;;;;12.63;5.50;;;30.90;77.80;;;;;;5050224;28;20044;-77
2023/07/02 11:36:53;;;;;;;9.32;5.57;;;30.80;77.70;;;;;;5049980;28;20052;-77
2023/07/02 11:39:58;;;;;;;9.43;5.50;;;30.80;78.70;;;;;;5051037;28;20044;-78
2023/07/02 11:43:02;;;;;;;9.93;5.32;;;30.80;78.50;;;;;;5051047;28;20052;-76
2023/07/02 11:46:06;;;;;;;8.48;5.20;;;30.80;78.90;;;;;;5050614;28;20040;-77
2023/07/02 11:49:10;;;;;;;11.20;6.88;;;30.80;78.90;;;;;;5050118;28;20147;-78
2023/07/02 11:52:15;;;;;;;15.23;6.82;;;30.90;78.90;;;;;;5050772;28;20044;-78
2023/07/02 11:55:19;;;;;;;10.82;5.97;;;30.80;78.10;;;;;;5050909;28;20040;-78
2023/07/02 11:58:23;;;;;;;13.30;6.53;;;30.80;78.80;;;;;;5050571;28;20170;-77
2023/07/02 12:01:27;;;;;;;10.13;5.50;;;30.70;79.40;;;;;;5050757;28;20040;-79
2023/07/02 12:04:31;;;;;;;13.43;6.00;;;30.70;79.10;;;;;;5050822;28;20046;-78
2023/07/02 12:07:35;;;;;;;9.07;4.90;;;30.50;79.10;;;;;;5050682;28;20043;-77
2023/07/02 12:10:40;;;;;;;13.07;5.28;;;30.50;80.30;;;;;;5050831;28;20036;-78
2023/07/02 12:13:44;;;;;;;9.60;4.97;;;30.50;79.20;;;;;;5050376;28;20508;-78
2023/07/02 12:16:48;;;;;;;11.43;5.00;;;30.50;79.30;;;;;;5050356;28;20064;-78
2023/07/02 12:19:51;;;;;;;10.10;5.13;;;30.40;79.80;;;;;;5050334;28;20056;-77
2023/07/02 12:22:57;;;;;;;12.38;5.28;;;30.40;79.40;;;;;;5050771;28;20040;-79
2023/07/02 12:26:01;;;;;;;10.07;5.13;;;30.30;79.50;;;;;;5050521;28;20048;-78
2023/07/02 12:29:05;;;;;;;10.55;5.18;;;30.30;79.30;;;;;;5051188;28;20044;-78
2023/07/02 12:32:09;;;;;;;9.23;5.50;;;30.30;79.40;;;;;;5053090;28;20052;-76
2023/07/02 12:35:13;;;;;;;9.57;4.88;;;30.30;79.70;;;;;;5054181;28;20047;-77
2023/07/02 12:38:17;;;;;;;10.23;4.90;;;30.30;79.30;;;;;;5054092;28;20064;-78
2023/07/02 12:41:21;;;;;;;12.30;5.65;;;30.30;78.80;;;;;;5054027;28;20044;-78
2023/07/02 12:44:25;;;;;;;8.73;4.90;;;30.20;78.90;;;;;;5051832;28;20048;-76
2023/07/02 12:47:29;;;;;;;9.13;4.72;;;30.10;79.20;;;;;;5052203;28;20047;-78
2023/07/02 12:50:32;;;;;;;8.88;4.93;;;30.20;78.90;;;;;;5052680;28;20040;-77
2023/07/02 12:53:36;;;;;;;9.05;5.05;;;30.20;79.80;;;;;;5051629;28;20138;-80
2023/07/02 12:56:40;;;;;;;9.25;5.00;;;30.20;79.60;;;;;;5051496;28;20052;-78
2023/07/02 12:59:44;;;;;;;12.63;5.68;;;30.30;79.10;;;;;;5051578;28;20040;-78
2023/07/02 13:02:48;;;;;;;12.77;5.40;;;30.20;78.70;;;;;;5051739;28;20808;-79
2023/07/02 13:05:52;;;;;;;10.60;5.45;;;30.20;79.20;;;;;;5052850;28;20048;-78
2023/07/02 13:08:56;;;;;;;7.22;4.28;;;30.20;79.40;;;;;;5053233;28;20067;-77
2023/07/02 13:12:00;;;;;;;7.35;4.20;;;30.20;79.30;;;;;;5053405;28;20048;-77
2023/07/02 13:15:04;;;;;;;8.40;4.63;;;30.10;79.90;;;;;;5053334;28;20052;-77
2023/07/02 13:18:08;;;;;;;8.77;4.72;;;30.10;79.80;;;;;;5053994;28;20064;-77
2023/07/02 13:21:13;;;;;;;11.23;4.22;;;30.10;79.70;;;;;;5052467;28;20051;-79
2023/07/02 13:24:17;;;;;;;9.98;4.15;;;30.10;80.10;;;;;;5052977;28;20036;-76
2023/07/02 13:27:20;;;;;;;7.68;4.25;;;30.20;79.80;;;;;;5052982;28;20040;-78
2023/07/02 13:30:25;;;;;;;6.47;4.20;;;30.20;79.90;;;;;;5053740;28;20040;-79
2023/07/02 13:33:33;;;;;;;14.00;5.60;;;30.20;78.90;;;;;;5052067;28;20044;-77
2023/07/02 13:36:37;;;;;;;7.68;4.70;;;30.10;79.40;;;;;;5052913;28;20594;-77
2023/07/02 13:39:41;;;;;;;10.32;4.72;;;30.10;80.00;;;;;;5052406;28;20044;-77
2023/07/02 13:42:45;;;;;;;7.80;4.95;;;30.10;79.80;;;;;;5053025;28;20504;-77
2023/07/02 13:45:49;;;;;;;11.18;4.40;;;30.20;79.70;;;;;;5052896;28;20040;-76
2023/07/02 13:48:53;;;;;;;10.05;5.05;;;30.20;78.90;;;;;;5052701;28;20050;-77
2023/07/02 13:51:57;;;;;;;7.40;4.47;;;30.00;79.20;;;;;;5052534;28;20044;-79
2023/07/02 13:55:01;;;;;;;7.97;3.97;;;30.10;78.50;;;;;;5052689;28;20047;-78
2023/07/02 13:58:05;;;;;;;11.68;4.57;;;30.10;77.80;;;;;;5052027;28;20056;-78
2023/07/02 14:01:09;;;;;;;11.18;5.40;;;30.20;77.90;;;;;;5052354;28;20044;-79
2023/07/02 14:04:15;;;;;;;8.10;4.43;;;30.20;76.70;;;;;;5052577;28;20503;-76
2023/07/02 14:07:20;;;;;;;7.97;4.20;;;30.10;77.10;;;;;;5052262;28;20044;-77
2023/07/02 14:10:24;;;;;;;8.23;4.28;;;30.10;77.30;;;;;;5052177;28;20052;-77
2023/07/02 14:13:28;;;;;;;8.15;4.43;;;30.10;77.80;;;;;;5050970;28;20108;-77
2023/07/02 14:16:32;;;;;;;6.00;4.55;;;30.10;77.30;;;;;;5051673;28;20040;-77
2023/07/02 14:19:36;;;;;;;10.27;4.72;;;30.10;77.20;;;;;;5051708;28;20211;-77
2023/07/02 14:22:40;;;;;;;6.15;3.88;;;30.10;76.70;;;;;;5051885;28;20388;-77
2023/07/02 14:25:44;;;;;;;7.93;4.50;;;30.00;77.50;;;;;;5051863;28;20051;-76
2023/07/02 14:28:48;;;;;;;8.18;4.55;;;30.00;78.00;;;;;;5051482;28;20064;-76
2023/07/02 14:31:52;;;;;;;6.07;3.90;;;30.00;78.30;;;;;;5051556;28;20067;-77
2023/07/02 14:34:56;;;;;;;13.13;4.38;;;29.90;78.20;;;;;;5051545;28;20499;-76
2023/07/02 14:38:00;;;;;;;8.85;4.28;;;29.90;78.50;;;;;;5051394;28;20539;-77
2023/07/02 14:41:04;;;;;;;8.40;4.40;;;29.80;78.70;;;;;;5051797;28;20044;-77
2023/07/02 14:44:08;;;;;;;8.25;4.45;;;29.80;79.50;;;;;;5051640;28;20068;-78
2023/07/02 14:47:12;;;;;;;6.35;3.90;;;29.80;79.60;;;;;;5051286;28;20040;-79
2023/07/02 14:50:16;;;;;;;8.38;4.60;;;29.80;79.60;;;;;;5051321;28;20043;-76
2023/07/02 14:53:21;;;;;;;8.45;4.78;;;29.90;79.90;;;;;;5050818;28;20032;-78
2023/07/02 14:56:25;;;;;;;9.13;5.10;;;29.80;79.80;;;;;;5051288;28;20056;-76
2023/07/02 14:59:29;;;;;;;9.82;5.18;;;29.70;80.10;;;;;;5051418;28;20044;-77
2023/07/02 15:02:33;;;;;;;11.52;4.95;;;29.70;80.60;;;;;;5051344;28;20055;-77
2023/07/02 15:05:37;;;;;;;9.05;4.88;;;29.70;80.70;;;;;;5051028;28;20040;-76
2023/07/02 15:08:41;;;;;;;8.27;4.43;;;29.60;80.90;;;;;;5051200;28;20041;-77
2023/07/02 15:11:44;;;;;;;10.10;4.00;;;29.60;81.10;;;;;;5051222;28;20040;-78
2023/07/02 15:14:48;;;;;;;9.30;4.55;;;29.60;81.50;;;;;;5050880;28;20044;-77
2023/07/02 15:17:52;;;;;;;8.32;4.50;;;29.70;80.70;;;;;;5050809;28;20060;-78
2023/07/02 15:20:57;;;;;;;10.85;4.82;;;29.70;80.40;;;;;;5051112;28;20413;-77
2023/07/02 15:24:02;;;;;;;8.95;4.55;;;29.70;80.50;;;;;;5050644;28;20081;-77
2023/07/02 15:27:07;;;;;;;9.45;4.85;;;29.80;80.20;;;;;;5050864;28;20048;-82
2023/07/02 15:30:11;;;;;;;10.60;5.00;;;29.80;80.00;;;;;;5050868;28;20040;-78
2023/07/02 15:33:15;;;;;;;10.30;5.03;;;29.80;80.10;;;;;;5051276;28;20048;-78
2023/07/02 15:36:21;;;;;;;10.60;4.78;;;29.80;80.20;;;;;;5050992;28;20052;-78
2023/07/02 15:39:32;;;;;;;7.95;4.85;;;29.80;80.30;;;;;;5051178;28;20430;-76
2023/07/02 15:42:36;;;;;;;9.45;4.72;;;29.80;80.50;;;;;;5050919;28;20048;-74
2023/07/02 15:45:40;;;;;;;9.35;4.72;;;29.80;80.60;;;;;;5051018;28;20044;-79
2023/07/02 15:48:44;;;;;;;10.13;5.03;;;29.80;80.50;;;;;;5050914;28;20051;-78